sensor_id;sensor_type;location;lat;lon;timestamp;pressure;altitude;pressure_sealevel;temperature;humidity
26719;BME280;14326;50.794;6.060;2023-08-21T16:47:18;100148.81;;;27.85;51.99
26719;BME280;14326;50.794;6.060;2023-08-21T16:49:45;100153.41;;;27.84;50.12
26719;BME280;14326;50.794;6.060;2023-08-21T16:52:11;100149.91;;;27.81;50.51
26719;BME280;14326;50.794;6.060;2023-08-21T16:54:38;100148.31;;;27.77;50.11
26719;BME280;14326;50.794;6.060;2023-08-21T16:57:05;100142.03;;;27.75;49.72
26719;BME280;14326;50.794;6.060;2023-08-21T16:59:31;100141.19;;;27.74;49.91
26719;BME280;14326;50.794;6.060;2023-08-21T17:01:58;100144.00;;;27.73;49.96
26719;BME280;14326;50.794;6.060;2023-08-21T17:04:26;100135.94;;;27.69;49.80
26719;BME280;14326;50.794;6.060;2023-08-21T17:06:53;100133.38;;;27.66;49.57
26719;BME280;14326;50.794;6.060;2023-08-21T17:09:19;100131.59;;;27.65;50.09
26719;BME280;14326;50.794;6.060;2023-08-21T17:11:46;100134.91;;;27.55;51.43
26719;BME280;14326;50.794;6.060;2023-08-21T17:14:13;100132.19;;;27.36;54.47
26719;BME280;14326;50.794;6.060;2023-08-21T17:16:39;100133.47;;;27.29;57.38
26719;BME280;14326;50.794;6.060;2023-08-21T17:19:06;100130.75;;;27.29;56.12
26719;BME280;14326;50.794;6.060;2023-08-21T17:21:34;100128.00;;;27.29;55.36
26719;BME280;14326;50.794;6.060;2023-08-21T17:24:00;100126.34;;;27.26;53.28
26719;BME280;14326;50.794;6.060;2023-08-21T17:26:27;100126.41;;;27.25;52.41
26719;BME280;14326;50.794;6.060;2023-08-21T17:28:54;100125.69;;;27.21;51.47
26719;BME280;14326;50.794;6.060;2023-08-21T17:31:20;100135.88;;;27.18;51.65
26719;BME280;14326;50.794;6.060;2023-08-21T17:33:47;100135.16;;;27.14;51.82
26719;BME280;14326;50.794;6.060;2023-08-21T17:36:14;100132.81;;;26.88;56.36
26719;BME280;14326;50.794;6.060;2023-08-21T17:38:42;100139.59;;;26.79;57.53
26719;BME280;14326;50.794;6.060;2023-08-21T17:41:08;100136.53;;;26.68;59.63
26719;BME280;14326;50.794;6.060;2023-08-21T17:43:35;100137.91;;;26.58;57.04
26719;BME280;14326;50.794;6.060;2023-08-21T17:46:02;100137.19;;;26.55;58.53
26719;BME280;14326;50.794;6.060;2023-08-21T17:48:29;100126.47;;;26.50;56.31
26719;BME280;14326;50.794;6.060;2023-08-21T17:50:55;100128.09;;;26.35;59.05
26719;BME280;14326;50.794;6.060;2023-08-21T17:53:24;100123.06;;;26.26;59.46
26719;BME280;14326;50.794;6.060;2023-08-21T17:55:52;100134.44;;;26.16;61.43
26719;BME280;14326;50.794;6.060;2023-08-21T17:58:19;100137.88;;;26.00;64.14
26719;BME280;14326;50.794;6.060;2023-08-21T18:00:45;100131.19;;;25.87;65.14
26719;BME280;14326;50.794;6.060;2023-08-21T18:03:12;100137.34;;;25.72;66.44
26719;BME280;14326;50.794;6.060;2023-08-21T18:05:38;100137.16;;;25.56;68.36
26719;BME280;14326;50.794;6.060;2023-08-21T18:08:05;100142.22;;;25.44;68.89
26719;BME280;14326;50.794;6.060;2023-08-21T18:10:32;100140.03;;;25.32;69.92
26719;BME280;14326;50.794;6.060;2023-08-21T18:13:00;100136.03;;;25.18;70.70
26719;BME280;14326;50.794;6.060;2023-08-21T18:15:28;100147.50;;;25.05;71.85
26719;BME280;14326;50.794;6.060;2023-08-21T18:17:56;100146.06;;;24.96;72.99
26719;BME280;14326;50.794;6.060;2023-08-21T18:20:51;100135.63;;;24.84;74.22
26719;BME280;14326;50.794;6.060;2023-08-21T18:23:21;100128.06;;;24.69;75.65
26719;BME280;14326;50.794;6.060;2023-08-21T18:25:48;100136.72;;;24.57;76.51
26719;BME280;14326;50.794;6.060;2023-08-21T18:28:16;100144.38;;;24.47;76.69
26719;BME280;14326;50.794;6.060;2023-08-21T18:30:48;100146.72;;;24.33;77.61
26719;BME280;14326;50.794;6.060;2023-08-21T18:33:15;100145.38;;;24.21;78.34
26719;BME280;14326;50.794;6.060;2023-08-21T18:35:42;100146.63;;;24.11;78.68
26719;BME280;14326;50.794;6.060;2023-08-21T18:38:08;100133.44;;;24.00;79.29
26719;BME280;14326;50.794;6.060;2023-08-21T18:40:36;100134.81;;;23.89;79.54
26719;BME280;14326;50.794;6.060;2023-08-21T18:43:03;100138.81;;;23.79;80.00
26719;BME280;14326;50.794;6.060;2023-08-21T18:45:34;100145.41;;;23.72;80.25
26719;BME280;14326;50.794;6.060;2023-08-21T18:48:01;100142.06;;;23.63;80.66
26719;BME280;14326;50.794;6.060;2023-08-21T18:50:35;100148.59;;;23.58;81.80
26719;BME280;14326;50.794;6.060;2023-08-21T18:53:03;100142.63;;;23.48;82.58
26719;BME280;14326;50.794;6.060;2023-08-21T18:55:31;100145.47;;;23.44;82.99
26719;BME280;14326;50.794;6.060;2023-08-21T18:57:57;100147.22;;;23.45;82.58
26719;BME280;14326;50.794;6.060;2023-08-21T19:02:53;100144.56;;;23.43;82.25
26719;BME280;14326;50.794;6.060;2023-08-21T19:05:20;100152.03;;;23.37;82.58
26719;BME280;14326;50.794;6.060;2023-08-21T19:07:47;100158.66;;;23.28;83.60
26719;BME280;14326;50.794;6.060;2023-08-21T19:10:14;100154.66;;;23.13;84.98
26719;BME280;14326;50.794;6.060;2023-08-21T19:12:42;100161.41;;;23.00;86.22
26719;BME280;14326;50.794;6.060;2023-08-21T19:15:09;100148.91;;;22.67;87.26
26719;BME280;14326;50.794;6.060;2023-08-21T19:17:37;100163.00;;;22.50;88.66
26719;BME280;14326;50.794;6.060;2023-08-21T19:20:05;100158.81;;;22.38;89.99
26719;BME280;14326;50.794;6.060;2023-08-21T19:22:32;100161.66;;;22.34;90.08
26719;BME280;14326;50.794;6.060;2023-08-21T19:24:59;100169.91;;;22.31;90.37
26719;BME280;14326;50.794;6.060;2023-08-21T19:27:26;100160.88;;;22.30;90.03
26719;BME280;14326;50.794;6.060;2023-08-21T19:29:52;100168.91;;;22.33;89.22
26719;BME280;14326;50.794;6.060;2023-08-21T19:32:19;100163.44;;;22.35;88.63
26719;BME280;14326;50.794;6.060;2023-08-21T19:34:46;100157.44;;;22.25;88.64
26719;BME280;14326;50.794;6.060;2023-08-21T19:37:14;100156.75;;;22.17;88.97
26719;BME280;14326;50.794;6.060;2023-08-21T19:39:41;100161.59;;;22.06;89.38
26719;BME280;14326;50.794;6.060;2023-08-21T19:42:08;100165.44;;;21.97;89.88
26719;BME280;14326;50.794;6.060;2023-08-21T19:44:35;100169.31;;;21.87;90.39
26719;BME280;14326;50.794;6.060;2023-08-21T19:47:03;100176.97;;;21.73;91.19
26719;BME280;14326;50.794;6.060;2023-08-21T19:49:29;100175.34;;;21.66;91.62
26719;BME280;14326;50.794;6.060;2023-08-21T19:51:56;100170.06;;;21.61;92.29
26719;BME280;14326;50.794;6.060;2023-08-21T19:54:24;100177.34;;;21.58;92.19
26719;BME280;14326;50.794;6.060;2023-08-21T19:56:51;100169.34;;;21.55;92.53
26719;BME280;14326;50.794;6.060;2023-08-21T19:59:18;100172.19;;;21.49;92.92
26719;BME280;14326;50.794;6.060;2023-08-21T20:01:45;100172.28;;;21.46;93.32
26719;BME280;14326;50.794;6.060;2023-08-21T20:04:11;100169.59;;;21.44;93.27
26719;BME280;14326;50.794;6.060;2023-08-21T20:06:38;100167.84;;;21.43;93.18
26719;BME280;14326;50.794;6.060;2023-08-21T20:09:04;100169.13;;;21.27;94.52
26719;BME280;14326;50.794;6.060;2023-08-21T20:11:32;100174.69;;;21.22;95.00
26719;BME280;14326;50.794;6.060;2023-08-21T20:13:59;100172.91;;;21.21;94.34
26719;BME280;14326;50.794;6.060;2023-08-21T20:16:26;100178.31;;;21.21;94.45
26719;BME280;14326;50.794;6.060;2023-08-21T20:18:53;100175.56;;;21.23;93.90
26719;BME280;14326;50.794;6.060;2023-08-21T20:21:22;100178.09;;;21.31;93.14
26719;BME280;14326;50.794;6.060;2023-08-21T20:23:49;100176.28;;;21.31;93.10
26719;BME280;14326;50.794;6.060;2023-08-21T20:26:17;100175.34;;;21.32;92.87
26719;BME280;14326;50.794;6.060;2023-08-21T20:28:45;100170.81;;;21.33;92.59
26719;BME280;14326;50.794;6.060;2023-08-21T20:31:12;100183.53;;;21.29;92.41
26719;BME280;14326;50.794;6.060;2023-08-21T20:33:38;100177.31;;;21.26;92.49
26719;BME280;14326;50.794;6.060;2023-08-21T20:36:05;100179.13;;;21.25;92.51
26719;BME280;14326;50.794;6.060;2023-08-21T20:38:32;100182.00;;;21.19;92.73
26719;BME280;14326;50.794;6.060;2023-08-21T20:41:02;100180.56;;;21.03;93.57
26719;BME280;14326;50.794;6.060;2023-08-21T20:43:29;100183.63;;;20.88;95.01
26719;BME280;14326;50.794;6.060;2023-08-21T20:46:01;100182.88;;;20.81;95.69
26719;BME280;14326;50.794;6.060;2023-08-21T20:48:29;100179.34;;;20.79;96.04
26719;BME280;14326;50.794;6.060;2023-08-21T20:50:56;100186.56;;;20.78;95.31
26719;BME280;14326;50.794;6.060;2023-08-21T20:53:23;100173.06;;;20.77;95.21
26719;BME280;14326;50.794;6.060;2023-08-21T20:55:50;100175.81;;;20.74;94.97
26719;BME280;14326;50.794;6.060;2023-08-21T20:58:16;100181.19;;;20.77;94.68
26719;BME280;14326;50.794;6.060;2023-08-21T21:00:44;100176.63;;;20.79;95.39
26719;BME280;14326;50.794;6.060;2023-08-21T21:03:12;100180.19;;;20.79;94.58
26719;BME280;14326;50.794;6.060;2023-08-21T21:05:39;100174.75;;;20.81;94.46
26719;BME280;14326;50.794;6.060;2023-08-21T21:08:06;100171.16;;;20.80;94.29
26719;BME280;14326;50.794;6.060;2023-08-21T21:10:33;100175.75;;;20.78;94.03
26719;BME280;14326;50.794;6.060;2023-08-21T21:13:00;100170.47;;;20.72;94.31
26719;BME280;14326;50.794;6.060;2023-08-21T21:15:27;100180.53;;;20.66;94.65
26719;BME280;14326;50.794;6.060;2023-08-21T21:17:53;100177.47;;;20.42;95.87
26719;BME280;14326;50.794;6.060;2023-08-21T21:20:21;100173.22;;;20.28;96.88
26719;BME280;14326;50.794;6.060;2023-08-21T21:22:48;100179.56;;;20.27;96.67
26719;BME280;14326;50.794;6.060;2023-08-21T21:25:14;100175.03;;;20.27;97.15
26719;BME280;14326;50.794;6.060;2023-08-21T21:27:41;100170.53;;;20.28;97.48
26719;BME280;14326;50.794;6.060;2023-08-21T21:30:09;100171.50;;;20.25;97.57
26719;BME280;14326;50.794;6.060;2023-08-21T21:32:35;100164.31;;;20.24;97.47
26719;BME280;14326;50.794;6.060;2023-08-21T21:35:02;100166.16;;;20.22;97.35
26719;BME280;14326;50.794;6.060;2023-08-21T21:37:30;100167.84;;;20.26;96.54
26719;BME280;14326;50.794;6.060;2023-08-21T21:39:58;100172.34;;;20.27;96.57
26719;BME280;14326;50.794;6.060;2023-08-21T21:42:25;100170.66;;;20.22;96.90
26719;BME280;14326;50.794;6.060;2023-08-21T21:44:53;100161.00;;;20.10;97.19
26719;BME280;14326;50.794;6.060;2023-08-21T21:47:19;100166.72;;;19.96;98.01
26719;BME280;14326;50.794;6.060;2023-08-21T21:49:46;100153.41;;;19.86;98.13
26719;BME280;14326;50.794;6.060;2023-08-21T21:52:13;100159.00;;;19.77;99.32
26719;BME280;14326;50.794;6.060;2023-08-21T21:54:40;100142.94;;;19.68;99.58
26719;BME280;14326;50.794;6.060;2023-08-21T21:57:08;100145.78;;;19.61;100.00
26719;BME280;14326;50.794;6.060;2023-08-21T21:59:35;100150.34;;;19.59;100.00
26719;BME280;14326;50.794;6.060;2023-08-21T22:02:02;100149.34;;;19.63;100.00
26719;BME280;14326;50.794;6.060;2023-08-21T22:04:29;100152.03;;;19.65;99.99
26719;BME280;14326;50.794;6.060;2023-08-21T22:06:55;100139.31;;;19.70;100.00
26719;BME280;14326;50.794;6.060;2023-08-21T22:09:22;100135.06;;;19.57;100.00
26719;BME280;14326;50.794;6.060;2023-08-21T22:11:50;100130.69;;;19.51;100.00
26719;BME280;14326;50.794;6.060;2023-08-21T22:14:16;100130.69;;;19.50;100.00
26719;BME280;14326;50.794;6.060;2023-08-21T22:16:43;100134.38;;;19.44;100.00
26719;BME280;14326;50.794;6.060;2023-08-21T22:19:10;100137.09;;;19.46;100.00
26719;BME280;14326;50.794;6.060;2023-08-21T22:21:36;100137.00;;;19.50;100.00
26719;BME280;14326;50.794;6.060;2023-08-21T22:24:04;100133.34;;;19.54;100.00
26719;BME280;14326;50.794;6.060;2023-08-21T22:26:30;100136.03;;;19.54;100.00
26719;BME280;14326;50.794;6.060;2023-08-21T22:28:58;100135.16;;;19.54;100.00
26719;BME280;14326;50.794;6.060;2023-08-21T22:31:25;100134.28;;;19.52;100.00
26719;BME280;14326;50.794;6.060;2023-08-21T22:33:51;100148.75;;;19.48;100.00
26719;BME280;14326;50.794;6.060;2023-08-21T22:36:18;100143.44;;;19.40;100.00
26719;BME280;14326;50.794;6.060;2023-08-21T22:38:45;100144.34;;;19.41;100.00
26719;BME280;14326;50.794;6.060;2023-08-21T22:41:11;100145.22;;;19.43;100.00
26719;BME280;14326;50.794;6.060;2023-08-21T22:43:38;100137.13;;;19.43;99.88
26719;BME280;14326;50.794;6.060;2023-08-21T22:46:06;100135.50;;;19.33;100.00
26719;BME280;14326;50.794;6.060;2023-08-21T22:48:32;100132.06;;;19.23;100.00
26719;BME280;14326;50.794;6.060;2023-08-21T22:51:03;100143.00;;;19.15;100.00
26719;BME280;14326;50.794;6.060;2023-08-21T22:53:29;100148.44;;;19.12;100.00
26719;BME280;14326;50.794;6.060;2023-08-21T22:55:56;100148.50;;;19.09;100.00
26719;BME280;14326;50.794;6.060;2023-08-21T22:58:22;100150.34;;;19.07;100.00
26719;BME280;14326;50.794;6.060;2023-08-21T23:00:49;100160.28;;;19.04;100.00
26719;BME280;14326;50.794;6.060;2023-08-21T23:03:17;100157.66;;;18.98;100.00
26719;BME280;14326;50.794;6.060;2023-08-21T23:05:51;100147.13;;;18.84;100.00
26719;BME280;14326;50.794;6.060;2023-08-21T23:08:18;100146.28;;;18.80;100.00
26719;BME280;14326;50.794;6.060;2023-08-21T23:10:44;100144.47;;;18.81;100.00
26719;BME280;14326;50.794;6.060;2023-08-21T23:13:11;100146.25;;;18.82;100.00
26719;BME280;14326;50.794;6.060;2023-08-21T23:15:43;100137.38;;;18.75;100.00
26719;BME280;14326;50.794;6.060;2023-08-21T23:18:10;100140.94;;;18.77;100.00
26719;BME280;14326;50.794;6.060;2023-08-21T23:20:38;100140.88;;;18.82;100.00
26719;BME280;14326;50.794;6.060;2023-08-21T23:23:04;100140.75;;;18.90;100.00
26719;BME280;14326;50.794;6.060;2023-08-21T23:25:31;100131.69;;;18.92;100.00
26719;BME280;14326;50.794;6.060;2023-08-21T23:27:58;100126.50;;;18.80;100.00
26719;BME280;14326;50.794;6.060;2023-08-21T23:30:25;100124.78;;;18.76;100.00
26719;BME280;14326;50.794;6.060;2023-08-21T23:32:51;100124.88;;;18.71;100.00
26719;BME280;14326;50.794;6.060;2023-08-21T23:35:18;100127.56;;;18.70;100.00
26719;BME280;14326;50.794;6.060;2023-08-21T23:37:46;100133.03;;;18.65;100.00
26719;BME280;14326;50.794;6.060;2023-08-21T23:40:13;100135.69;;;18.68;100.00
26719;BME280;14326;50.794;6.060;2023-08-21T23:42:41;100127.63;;;18.67;100.00
26719;BME280;14326;50.794;6.060;2023-08-21T23:45:09;100132.28;;;18.56;100.00
26719;BME280;14326;50.794;6.060;2023-08-21T23:47:36;100124.31;;;18.45;100.00
26719;BME280;14326;50.794;6.060;2023-08-21T23:50:05;100121.63;;;18.47;100.00
26719;BME280;14326;50.794;6.060;2023-08-21T23:52:32;100120.72;;;18.46;100.00
26719;BME280;14326;50.794;6.060;2023-08-21T23:55:01;100120.72;;;18.48;100.00
26719;BME280;14326;50.794;6.060;2023-08-21T23:57:29;100120.63;;;18.52;100.00
26719;BME280;14326;50.794;6.060;2023-08-21T23:59:56;100116.09;;;18.57;100.00
